TAF and METAR

METAR for Urgench International Airport

UTNU 161130Z 01010KT CAVOK 35/09 Q1012 R31/CLRD70 NOSIG
Report created 16. aug 13:30
wind 10 knots from N (010°) Clear sky Temperature 35° with dewpoint at 9° (Humidity 20.47%) Pressure 1012 hPa

TAF for Urgench International Airport

TAF UTNU 161105Z 1612/1712 36010G20KT 7000 NSC TEMPO 1612/1618 30008KT SCT060CB BKN100
Report created 16. aug 13:05

between 16. aug 14:00 - 17. aug 14:00

wind 10 knots from N (360°) with gusts up to 20 knots visibility 7000 meters No significant clouds.

temporarily between 16. aug 14:00 - 16. aug 20:00

wind 8 knots from WNW (300°) scattered clouds (~50% cover) at 6000 feet of type cumulonimbus broken clouds (~75% cover) at 10000 feet